Time;durP1;ratioP1;P1;durP2;ratioP2;P2;SDS_P1;SDS_P2;PMS_P1;PMS_P2;Temp;Humidity;BMP_temperature;BMP_pressure;BME280_temperature;BME280_humidity;BME280_pressure;Samples;Min_cycle;Max_cycle;Signal;HPM_P1;HPM_P2
2021/12/08 00:02:09;;;;;;;12.55;2.63;;;;;;;;;;5042646;28;20033;-75
2021/12/08 00:04:35;;;;;;;15.05;2.45;;;;;;;;;;5036465;28;20032;-73
2021/12/08 00:07:02;;;;;;;11.05;2.03;;;;;;;;;;5044145;28;20075;-76
2021/12/08 00:09:46;;;;;;;11.82;2.55;;;;;;;;;;5043945;28;20028;-76
2021/12/08 00:14:58;;;;;;;9.63;2.05;;;;;;;;;;5044019;28;20094;-74
2021/12/08 00:17:24;;;;;;;14.90;2.25;;;;;;;;;;5043715;28;20141;-75
2021/12/08 00:19:51;;;;;;;9.38;2.67;;;;;;;;;;5043700;28;20029;-74
2021/12/08 00:22:17;;;;;;;17.13;3.40;;;;;;;;;;5043866;28;20140;-73
2021/12/08 00:24:44;;;;;;;14.98;2.25;;;;;;;;;;5042507;28;20035;-75
2021/12/08 00:27:11;;;;;;;11.43;2.50;;;;;;;;;;5043888;28;20059;-74
2021/12/08 00:29:37;;;;;;;10.93;2.03;;;;;;;;;;5043010;28;20033;-75
2021/12/08 00:32:05;;;;;;;14.98;2.75;;;;;;;;;;5043241;28;20029;-75
2021/12/08 00:34:32;;;;;;;11.98;2.45;;;;;;;;;;5043448;28;20032;-75
2021/12/08 00:37:01;;;;;;;13.85;3.17;;;;;;;;;;5042537;28;20027;-76
2021/12/08 00:39:27;;;;;;;12.20;2.38;;;;;;;;;;5041672;28;20032;-75
2021/12/08 00:41:53;;;;;;;11.48;2.15;;;;;;;;;;5042747;28;20048;-74
2021/12/08 00:44:19;;;;;;;10.60;2.55;;;;;;;;;;5042046;28;20032;-75
2021/12/08 00:46:46;;;;;;;12.85;2.33;;;;;;;;;;5039942;28;20111;-75
2021/12/08 00:49:15;;;;;;;9.32;2.40;;;;;;;;;;5042927;28;20404;-74
2021/12/08 00:51:41;;;;;;;16.70;2.58;;;;;;;;;;5043504;28;20025;-75
2021/12/08 00:54:07;;;;;;;17.00;3.15;;;;;;;;;;5043260;28;20075;-75
2021/12/08 00:56:34;;;;;;;10.75;2.17;;;;;;;;;;5044233;28;20108;-73
2021/12/08 00:59:00;;;;;;;13.27;2.15;;;;;;;;;;5044272;28;20053;-74
2021/12/08 01:01:26;;;;;;;11.40;2.60;;;;;;;;;;5045775;28;20074;-73
2021/12/08 01:03:52;;;;;;;9.02;2.63;;;;;;;;;;5045952;28;20033;-73
2021/12/08 01:06:19;;;;;;;12.88;2.20;;;;;;;;;;5045293;28;20033;-73
2021/12/08 01:08:46;;;;;;;14.02;2.22;;;;;;;;;;5045293;28;20025;-72
2021/12/08 01:11:16;;;;;;;12.40;2.22;;;;;;;;;;5038323;28;20329;-72
2021/12/08 01:13:42;;;;;;;11.95;2.85;;;;;;;;;;5042139;28;20111;-74
2021/12/08 01:16:08;;;;;;;10.40;1.80;;;;;;;;;;5043736;28;20025;-73
2021/12/08 01:18:35;;;;;;;11.35;2.75;;;;;;;;;;5035102;28;20032;-73
2021/12/08 01:21:04;;;;;;;11.20;2.42;;;;;;;;;;5044227;28;20059;-74
2021/12/08 01:23:30;;;;;;;13.68;2.67;;;;;;;;;;5042669;28;20091;-72
2021/12/08 01:25:57;;;;;;;12.18;2.25;;;;;;;;;;5040466;28;20033;-74
2021/12/08 01:28:23;;;;;;;9.45;1.85;;;;;;;;;;5039020;28;20052;-74
2021/12/08 01:30:51;;;;;;;4.63;1.90;;;;;;;;;;5041272;28;20029;-73
2021/12/08 01:33:18;;;;;;;9.32;1.90;;;;;;;;;;5040986;28;20032;-72
2021/12/08 01:35:44;;;;;;;11.02;2.17;;;;;;;;;;5038921;28;20453;-74
2021/12/08 01:38:10;;;;;;;12.50;2.33;;;;;;;;;;5040983;28;20029;-72
2021/12/08 01:40:36;;;;;;;12.30;2.47;;;;;;;;;;5039256;28;20182;-72
2021/12/08 01:43:12;;;;;;;9.90;1.92;;;;;;;;;;5040559;28;20033;-72
2021/12/08 01:45:59;;;;;;;6.55;1.60;;;;;;;;;;5036030;28;20036;-72
2021/12/08 01:48:26;;;;;;;13.70;2.55;;;;;;;;;;5033136;28;20098;-73
2021/12/08 01:50:55;;;;;;;14.82;2.40;;;;;;;;;;5041068;28;20021;-73
2021/12/08 01:53:21;;;;;;;12.68;1.83;;;;;;;;;;5033724;28;20037;-73
2021/12/08 01:55:48;;;;;;;8.40;2.05;;;;;;;;;;5043072;28;20055;-73
2021/12/08 01:58:15;;;;;;;9.95;1.85;;;;;;;;;;5044209;28;20025;-72
2021/12/08 02:01:07;;;;;;;7.00;1.90;;;;;;;;;;5043227;28;20047;-74
2021/12/08 02:03:33;;;;;;;;;;;;;;;;;;5034583;28;20041;-73
2021/12/08 02:06:00;;;;;;;9.57;2.20;;;;;;;;;;5044528;28;20242;-73
2021/12/08 02:08:26;;;;;;;7.40;2.00;;;;;;;;;;5043867;28;20045;-74
2021/12/08 02:10:53;;;;;;;11.65;2.30;;;;;;;;;;5042320;28;20057;-73
2021/12/08 02:13:20;;;;;;;11.48;2.35;;;;;;;;;;5044599;28;20631;-73
2021/12/08 02:15:46;;;;;;;8.95;2.28;;;;;;;;;;5044291;28;20314;-73
2021/12/08 02:18:14;;;;;;;9.82;2.25;;;;;;;;;;5042294;28;20462;-73
2021/12/08 02:20:43;;;;;;;10.40;3.22;;;;;;;;;;5043746;28;20045;-74
2021/12/08 02:23:09;;;;;;;8.50;1.73;;;;;;;;;;5042059;28;20027;-74
2021/12/08 02:25:36;;;;;;;7.53;1.90;;;;;;;;;;5043310;28;20047;-74
2021/12/08 02:28:02;;;;;;;11.27;2.63;;;;;;;;;;5043749;28;20064;-72
2021/12/08 02:30:38;;;;;;;13.43;2.53;;;;;;;;;;5043929;28;20033;-75
2021/12/08 02:49:32;;;;;;;9.13;2.83;;;;;;;;;;5038029;28;20041;-72
2021/12/08 02:51:59;;;;;;;28.08;3.05;;;;;;;;;;5043047;28;20634;-73
2021/12/08 02:54:25;;;;;;;11.23;2.03;;;;;;;;;;5043649;28;20538;-74
2021/12/08 02:56:54;;;;;;;11.27;2.33;;;;;;;;;;5043513;28;20389;-72
2021/12/08 02:59:20;;;;;;;12.98;1.83;;;;;;;;;;5041075;28;20121;-72
2021/12/08 03:01:46;;;;;;;11.93;2.58;;;;;;;;;;5041168;28;20033;-73
2021/12/08 03:04:12;;;;;;;15.38;2.80;;;;;;;;;;5043105;28;20029;-74
2021/12/08 03:06:38;;;;;;;9.32;2.00;;;;;;;;;;5041264;28;20288;-73
2021/12/08 03:09:06;;;;;;;8.50;2.00;;;;;;;;;;5042918;28;20532;-73
2021/12/08 03:11:32;;;;;;;7.53;2.40;;;;;;;;;;5042336;28;20037;-73
2021/12/08 03:14:07;;;;;;;12.23;1.85;;;;;;;;;;5042911;28;20017;-73
2021/12/08 03:16:34;;;;;;;9.45;2.35;;;;;;;;;;5041858;28;20040;-72
2021/12/08 03:19:00;;;;;;;16.08;3.22;;;;;;;;;;5045511;28;20024;-73
2021/12/08 03:21:30;;;;;;;10.93;1.90;;;;;;;;;;5044614;28;20114;-72
2021/12/08 03:27:06;;;;;;;21.52;2.60;;;;;;;;;;5044801;28;20112;-72
2021/12/08 03:32:16;;;;;;;22.00;2.95;;;;;;;;;;5045162;28;20733;-73
2021/12/08 03:34:54;;;;;;;10.80;1.98;;;;;;;;;;5044475;28;20730;-73
2021/12/08 03:37:22;;;;;;;11.35;2.00;;;;;;;;;;5044958;28;20024;-72
2021/12/08 03:39:50;;;;;;;10.45;2.20;;;;;;;;;;5043326;28;20121;-72
2021/12/08 03:42:18;;;;;;;11.05;2.03;;;;;;;;;;5044833;28;20190;-72
2021/12/08 03:44:44;;;;;;;7.40;1.88;;;;;;;;;;5044964;28;20028;-75
2021/12/08 03:47:16;;;;;;;10.52;2.20;;;;;;;;;;5044291;28;20028;-73
2021/12/08 03:49:42;;;;;;;;;;;;;;;;;;5043506;28;20025;-72
2021/12/08 03:52:08;;;;;;;11.30;2.33;;;;;;;;;;5044475;28;20661;-72
2021/12/08 03:54:35;;;;;;;8.65;1.77;;;;;;;;;;5044858;28;20496;-73
2021/12/08 03:57:01;;;;;;;13.32;1.98;;;;;;;;;;5044151;28;20366;-73
2021/12/08 03:59:27;;;;;;;21.40;2.20;;;;;;;;;;5041315;28;20684;-73
2021/12/08 04:01:53;;;;;;;16.85;2.72;;;;;;;;;;5042254;28;20029;-73
2021/12/08 04:04:25;;;;;;;8.10;2.10;;;;;;;;;;5041689;28;20057;-72
2021/12/08 04:06:52;;;;;;;9.63;2.80;;;;;;;;;;5041994;28;20041;-74
2021/12/08 04:09:28;;;;;;;7.75;1.98;;;;;;;;;;5041824;28;20037;-73
2021/12/08 04:11:55;;;;;;;7.18;2.53;;;;;;;;;;5040483;28;20064;-72
2021/12/08 04:14:23;;;;;;;11.90;2.10;;;;;;;;;;5041378;28;20028;-72
2021/12/08 04:16:51;;;;;;;10.98;2.10;;;;;;;;;;5041305;28;20029;-73
2021/12/08 04:19:17;;;;;;;9.27;2.25;;;;;;;;;;5041861;28;20093;-72
2021/12/08 04:21:44;;;;;;;13.15;2.38;;;;;;;;;;5041652;28;20053;-73
2021/12/08 04:24:10;;;;;;;7.82;1.73;;;;;;;;;;5040241;28;20659;-73
2021/12/08 04:26:40;;;;;;;6.80;1.80;;;;;;;;;;5039638;28;20043;-74
2021/12/08 04:29:08;;;;;;;8.90;1.55;;;;;;;;;;5041341;28;20017;-74
2021/12/08 04:31:35;;;;;;;11.00;1.92;;;;;;;;;;5041287;28;20021;-73
2021/12/08 04:34:04;;;;;;;8.63;1.60;;;;;;;;;;5041559;28;20159;-73
2021/12/08 04:36:37;;;;;;;7.60;1.85;;;;;;;;;;5039972;28;20021;-73
2021/12/08 04:39:08;;;;;;;6.30;1.98;;;;;;;;;;5041533;28;20025;-74
2021/12/08 04:41:40;;;;;;;6.97;1.60;;;;;;;;;;5041441;28;20036;-73
2021/12/08 04:44:23;;;;;;;9.95;2.22;;;;;;;;;;5041061;28;20047;-73
2021/12/08 04:51:58;;;;;;;5.38;1.45;;;;;;;;;;5039852;28;20032;-72
2021/12/08 05:00:43;;;;;;;9.23;1.50;;;;;;;;;;5018672;28;20061;-74
2021/12/08 05:08:40;;;;;;;11.68;2.05;;;;;;;;;;5040703;28;20095;-73
2021/12/08 05:11:09;;;;;;;6.20;1.60;;;;;;;;;;5041141;28;20059;-73
2021/12/08 05:13:35;;;;;;;8.30;2.08;;;;;;;;;;5039976;28;20060;-74
2021/12/08 05:16:01;;;;;;;9.50;1.60;;;;;;;;;;5038268;28;20102;-75
2021/12/08 05:18:36;;;;;;;8.88;1.58;;;;;;;;;;5040897;28;20092;-73
2021/12/08 05:21:15;;;;;;;11.15;1.27;;;;;;;;;;5041157;28;20418;-74
2021/12/08 05:23:55;;;;;;;9.77;1.65;;;;;;;;;;5039411;28;20033;-73
2021/12/08 05:26:21;;;;;;;14.40;2.08;;;;;;;;;;5040496;28;20045;-73
2021/12/08 05:28:49;;;;;;;7.78;1.38;;;;;;;;;;5042395;28;20033;-74
2021/12/08 05:31:25;;;;;;;5.75;1.50;;;;;;;;;;5045193;28;20029;-74
2021/12/08 05:33:51;;;;;;;12.52;2.47;;;;;;;;;;5043172;28;20028;-74
2021/12/08 05:36:17;;;;;;;6.45;1.48;;;;;;;;;;5045007;28;20045;-76
2021/12/08 05:38:44;;;;;;;6.40;2.05;;;;;;;;;;5043218;28;20181;-74
2021/12/08 05:41:15;;;;;;;7.47;1.70;;;;;;;;;;5044729;28;20051;-73
2021/12/08 05:43:41;;;;;;;7.20;1.50;;;;;;;;;;5035232;28;20035;-80
2021/12/08 05:46:08;;;;;;;8.52;1.65;;;;;;;;;;5039998;28;20450;-73
2021/12/08 05:48:35;;;;;;;9.48;1.40;;;;;;;;;;5041990;28;20388;-75
2021/12/08 05:51:07;;;;;;;5.53;1.45;;;;;;;;;;5041813;28;20128;-75
2021/12/08 05:53:35;;;;;;;4.75;1.40;;;;;;;;;;5042204;28;20028;-73
2021/12/08 05:56:01;;;;;;;4.07;1.20;;;;;;;;;;5039327;28;20529;-75
2021/12/08 05:58:28;;;;;;;11.10;1.67;;;;;;;;;;5042251;28;20074;-73
2021/12/08 06:01:00;;;;;;;6.07;1.80;;;;;;;;;;5041232;28;20128;-74
2021/12/08 06:03:26;;;;;;;8.05;2.05;;;;;;;;;;5040291;28;20581;-75
2021/12/08 06:05:53;;;;;;;9.43;1.48;;;;;;;;;;5040008;28;20202;-75
2021/12/08 06:08:19;;;;;;;4.72;1.20;;;;;;;;;;5041243;28;20535;-75
2021/12/08 06:10:46;;;;;;;5.80;1.63;;;;;;;;;;5041554;28;20036;-73
2021/12/08 06:13:14;;;;;;;9.20;2.00;;;;;;;;;;5041596;28;20029;-73
2021/12/08 06:15:41;;;;;;;4.88;1.05;;;;;;;;;;5033545;28;20283;-74
2021/12/08 06:18:07;;;;;;;6.50;1.17;;;;;;;;;;5041083;28;20021;-73
2021/12/08 06:20:34;;;;;;;8.75;1.23;;;;;;;;;;5039532;28;20048;-75
2021/12/08 06:23:00;;;;;;;19.67;1.30;;;;;;;;;;5041267;28;20025;-75
2021/12/08 06:25:27;;;;;;;6.50;1.38;;;;;;;;;;5041239;28;20057;-75
2021/12/08 06:27:53;;;;;;;2.67;1.00;;;;;;;;;;5039337;28;20106;-74
2021/12/08 06:30:23;;;;;;;6.70;1.50;;;;;;;;;;5039885;28;20028;-74
2021/12/08 06:32:50;;;;;;;7.65;1.00;;;;;;;;;;5040784;28;20033;-74
2021/12/08 06:35:27;;;;;;;2.63;0.95;;;;;;;;;;5040968;28;20024;-75
2021/12/08 06:37:54;;;;;;;6.93;1.27;;;;;;;;;;5039710;28;20393;-74
2021/12/08 06:40:30;;;;;;;7.90;1.10;;;;;;;;;;5040709;28;20033;-74
2021/12/08 06:42:57;;;;;;;5.20;1.50;;;;;;;;;;5040701;28;20439;-74
2021/12/08 06:45:28;;;;;;;10.15;1.60;;;;;;;;;;5039785;28;20029;-74
2021/12/08 06:47:56;;;;;;;3.67;1.15;;;;;;;;;;5041028;28;20041;-73
2021/12/08 06:50:26;;;;;;;7.70;1.38;;;;;;;;;;5039454;28;20025;-73
2021/12/08 06:52:53;;;;;;;4.30;1.45;;;;;;;;;;5039121;28;20857;-74
2021/12/08 06:55:41;;;;;;;7.38;1.40;;;;;;;;;;5032533;28;20110;-74
2021/12/08 06:58:09;;;;;;;8.48;1.80;;;;;;;;;;5040616;28;20167;-74
2021/12/08 07:00:51;;;;;;;7.45;1.45;;;;;;;;;;5038763;28;20048;-73
2021/12/08 07:06:09;;;;;;;5.18;1.38;;;;;;;;;;5040939;28;20033;-73
2021/12/08 07:08:38;;;;;;;6.35;1.67;;;;;;;;;;5032666;28;20047;-74
2021/12/08 07:11:05;;;;;;;6.45;1.63;;;;;;;;;;5040581;28;20481;-74
2021/12/08 07:13:34;;;;;;;9.85;1.90;;;;;;;;;;5039186;28;20041;-73
2021/12/08 07:16:05;;;;;;;8.57;2.00;;;;;;;;;;5040724;28;20198;-74
2021/12/08 07:18:39;;;;;;;9.30;2.08;;;;;;;;;;5040378;28;20400;-74
2021/12/08 07:21:06;;;;;;;6.85;1.92;;;;;;;;;;5040637;28;20036;-73
2021/12/08 07:23:38;;;;;;;5.65;1.30;;;;;;;;;;5039873;28;20029;-75
2021/12/08 07:26:09;;;;;;;8.15;1.73;;;;;;;;;;5038358;28;20485;-72
2021/12/08 07:28:37;;;;;;;5.15;1.38;;;;;;;;;;5037851;28;20067;-73
2021/12/08 07:31:29;;;;;;;4.30;1.50;;;;;;;;;;5039660;28;20024;-73
2021/12/08 07:34:02;;;;;;;3.38;1.30;;;;;;;;;;5038106;28;20041;-73
2021/12/08 07:36:29;;;;;;;5.75;1.67;;;;;;;;;;5038266;28;20025;-76
2021/12/08 07:38:59;;;;;;;9.82;2.08;;;;;;;;;;5039802;28;20037;-73
2021/12/08 07:41:30;;;;;;;4.63;1.55;;;;;;;;;;5040017;28;20154;-73
2021/12/08 07:43:58;;;;;;;8.98;2.78;;;;;;;;;;5039081;28;20029;-73
2021/12/08 07:46:40;;;;;;;4.93;1.33;;;;;;;;;;5039568;28;20041;-74
2021/12/08 07:49:17;;;;;;;7.82;1.65;;;;;;;;;;5036583;28;20509;-73
2021/12/08 07:51:48;;;;;;;7.65;1.65;;;;;;;;;;5039103;28;20064;-73
2021/12/08 07:54:16;;;;;;;7.18;1.63;;;;;;;;;;5039214;28;20146;-73
2021/12/08 07:56:45;;;;;;;6.53;1.83;;;;;;;;;;5039785;28;20055;-73
2021/12/08 07:59:13;;;;;;;12.23;2.10;;;;;;;;;;5037672;28;20090;-72
2021/12/08 08:01:42;;;;;;;8.00;2.35;;;;;;;;;;5038180;28;20052;-72
2021/12/08 08:04:10;;;;;;;7.53;1.73;;;;;;;;;;5039468;28;20092;-74
2021/12/08 08:06:39;;;;;;;12.00;2.15;;;;;;;;;;5039206;28;20307;-72
2021/12/08 08:09:07;;;;;;;6.18;1.77;;;;;;;;;;5038286;28;20027;-72
2021/12/08 08:11:40;;;;;;;7.03;1.90;;;;;;;;;;5039501;28;20021;-73
2021/12/08 08:14:06;;;;;;;5.82;1.92;;;;;;;;;;5037613;28;20103;-74
2021/12/08 08:16:36;;;;;;;8.20;2.25;;;;;;;;;;5037436;28;20040;-74
2021/12/08 08:19:09;;;;;;;4.80;1.83;;;;;;;;;;5038967;28;20021;-72
2021/12/08 08:21:37;;;;;;;5.40;1.85;;;;;;;;;;5036060;28;20362;-74
2021/12/08 08:24:04;;;;;;;5.55;2.22;;;;;;;;;;5039502;28;20372;-74
2021/12/08 08:26:32;;;;;;;7.55;1.90;;;;;;;;;;5038226;28;20037;-74
2021/12/08 08:28:58;;;;;;;6.18;2.70;;;;;;;;;;5037514;28;20029;-73
2021/12/08 08:31:27;;;;;;;4.97;1.83;;;;;;;;;;5038582;28;20021;-74
2021/12/08 08:33:53;;;;;;;5.13;1.95;;;;;;;;;;5037351;28;20112;-73
2021/12/08 08:36:23;;;;;;;8.82;2.75;;;;;;;;;;5038960;28;20028;-73
2021/12/08 08:38:55;;;;;;;5.38;1.88;;;;;;;;;;5038926;28;20044;-73
2021/12/08 08:41:21;;;;;;;;;;;;;;;;;;5039375;28;21124;-73
2021/12/08 08:43:48;;;;;;;5.93;2.00;;;;;;;;;;5038142;28;19958;-73
2021/12/08 08:46:18;;;;;;;6.47;2.20;;;;;;;;;;5038558;28;20029;-73
2021/12/08 08:48:51;;;;;;;5.20;2.67;;;;;;;;;;5036560;28;20068;-73
2021/12/08 08:51:33;;;;;;;3.92;2.00;;;;;;;;;;5038558;28;20060;-73
2021/12/08 08:54:02;;;;;;;4.78;2.25;;;;;;;;;;5038508;28;20029;-73
2021/12/08 08:56:29;;;;;;;10.15;2.10;;;;;;;;;;5038453;28;20032;-73
2021/12/08 08:59:12;;;;;;;9.27;2.30;;;;;;;;;;5036962;28;20286;-74
2021/12/08 09:01:42;;;;;;;7.82;2.28;;;;;;;;;;5032841;28;20028;-73
2021/12/08 09:04:12;;;;;;;4.82;1.90;;;;;;;;;;5041847;28;20064;-74
2021/12/08 09:06:44;;;;;;;8.60;2.30;;;;;;;;;;5042703;28;20614;-73
2021/12/08 09:09:13;;;;;;;5.85;2.38;;;;;;;;;;5039257;28;20064;-73
2021/12/08 09:11:47;;;;;;;4.68;1.83;;;;;;;;;;5042992;28;20056;-73
2021/12/08 09:14:15;;;;;;;8.10;2.13;;;;;;;;;;5042786;28;20021;-73
2021/12/08 09:16:51;;;;;;;6.53;2.10;;;;;;;;;;5034389;28;20033;-73
2021/12/08 09:19:23;;;;;;;5.35;2.38;;;;;;;;;;5042344;28;20029;-74
2021/12/08 09:21:54;;;;;;;4.40;2.00;;;;;;;;;;5033966;28;20025;-72
2021/12/08 09:24:23;;;;;;;8.20;2.58;;;;;;;;;;5042558;28;20021;-74
2021/12/08 09:26:52;;;;;;;4.47;1.95;;;;;;;;;;5042389;28;20078;-73
2021/12/08 09:29:24;;;;;;;7.28;2.45;;;;;;;;;;5041056;28;20542;-73
2021/12/08 09:31:55;;;;;;;9.00;2.10;;;;;;;;;;5041906;28;20563;-73
2021/12/08 09:34:32;;;;;;;5.45;2.20;;;;;;;;;;5042768;28;20047;-73
2021/12/08 09:37:00;;;;;;;7.57;2.72;;;;;;;;;;5040334;28;20485;-72
2021/12/08 09:39:32;;;;;;;5.28;1.88;;;;;;;;;;5042879;28;20076;-73
2021/12/08 09:42:03;;;;;;;4.43;1.60;;;;;;;;;;5042105;28;20440;-74
2021/12/08 09:44:32;;;;;;;5.55;1.58;;;;;;;;;;5041939;28;20033;-74
2021/12/08 09:46:58;;;;;;;6.35;2.05;;;;;;;;;;5039844;28;20332;-74
2021/12/08 09:49:25;;;;;;;6.45;1.77;;;;;;;;;;5042599;28;20040;-74
2021/12/08 09:51:53;;;;;;;8.02;2.25;;;;;;;;;;5042065;28;20456;-74
2021/12/08 09:54:19;;;;;;;6.47;2.15;;;;;;;;;;5034478;28;20053;-73
2021/12/08 09:56:48;;;;;;;4.97;2.13;;;;;;;;;;5040174;28;20040;-74
2021/12/08 09:59:15;;;;;;;7.35;2.30;;;;;;;;;;5041990;28;20531;-73
2021/12/08 10:01:44;;;;;;;8.10;3.20;;;;;;;;;;5042132;28;20473;-73
2021/12/08 10:04:11;;;;;;;7.05;2.75;;;;;;;;;;5041591;28;20025;-74
2021/12/08 10:06:39;;;;;;;5.30;2.67;;;;;;;;;;5040178;28;20668;-73
2021/12/08 10:09:05;;;;;;;5.93;2.45;;;;;;;;;;5041370;28;20063;-73
2021/12/08 10:11:32;;;;;;;6.10;2.20;;;;;;;;;;5042226;28;20032;-73
2021/12/08 10:13:59;;;;;;;6.00;2.30;;;;;;;;;;5041398;28;20079;-73
2021/12/08 10:16:26;;;;;;;7.10;2.42;;;;;;;;;;5040801;28;20040;-73
2021/12/08 10:18:53;;;;;;;6.20;2.55;;;;;;;;;;5039625;28;20052;-73
2021/12/08 10:21:20;;;;;;;11.02;2.80;;;;;;;;;;5040106;28;20033;-73
2021/12/08 10:23:48;;;;;;;8.50;2.70;;;;;;;;;;5038840;28;20032;-73
2021/12/08 10:26:23;;;;;;;6.07;2.70;;;;;;;;;;5038685;28;20048;-73
2021/12/08 10:28:59;;;;;;;6.35;2.50;;;;;;;;;;5038644;28;20711;-72
2021/12/08 10:31:31;;;;;;;6.38;2.53;;;;;;;;;;5040114;28;20040;-76
2021/12/08 10:36:55;;;;;;;2.58;1.20;;;;;;;;;;5046314;28;20202;-74
2021/12/08 10:39:24;;;;;;;2.53;1.13;;;;;;;;;;5036209;28;20018;-75
2021/12/08 10:41:56;;;;;;;5.13;1.10;;;;;;;;;;5045276;28;20102;-73
2021/12/08 10:44:24;;;;;;;3.80;1.10;;;;;;;;;;5046424;28;20362;-75
2021/12/08 10:46:54;;;;;;;4.28;1.60;;;;;;;;;;5046729;28;20488;-74
2021/12/08 10:54:43;;;;;;;5.20;1.50;;;;;;;;;;5036973;28;20043;-77
2021/12/08 10:57:30;;;;;;;5.20;1.70;;;;;;;;;;5038686;28;20496;-77
2021/12/08 10:59:57;;;;;;;5.07;1.77;;;;;;;;;;5038674;28;20049;-76
2021/12/08 11:02:41;;;;;;;2.80;1.60;;;;;;;;;;5040278;28;20028;-73
2021/12/08 11:05:28;;;;;;;6.18;1.38;;;;;;;;;;5038931;28;20017;-74
2021/12/08 11:08:12;;;;;;;4.10;1.30;;;;;;;;;;5040057;28;20087;-72
2021/12/08 11:10:42;;;;;;;3.33;1.30;;;;;;;;;;5040820;28;20056;-72
2021/12/08 11:13:09;;;;;;;3.05;1.50;;;;;;;;;;5040371;28;20548;-76
2021/12/08 11:15:37;;;;;;;3.42;1.63;;;;;;;;;;5039939;28;20805;-72
2021/12/08 11:18:08;;;;;;;8.00;1.58;;;;;;;;;;5039783;28;20025;-73
2021/12/08 11:20:36;;;;;;;2.28;1.13;;;;;;;;;;5039134;28;20037;-73
2021/12/08 11:23:04;;;;;;;2.88;1.40;;;;;;;;;;5040212;28;20017;-76
2021/12/08 11:25:35;;;;;;;2.03;0.93;;;;;;;;;;5040201;28;20132;-75
2021/12/08 11:28:22;;;;;;;1.83;0.80;;;;;;;;;;5039376;28;20029;-75
2021/12/08 11:30:49;;;;;;;2.38;0.68;;;;;;;;;;5040493;28;20028;-76
2021/12/08 11:33:18;;;;;;;1.67;0.90;;;;;;;;;;5038952;28;20032;-75
2021/12/08 11:35:44;;;;;;;3.35;1.08;;;;;;;;;;5039662;28;20041;-75
2021/12/08 11:38:10;;;;;;;3.28;1.35;;;;;;;;;;5039871;28;20032;-75
2021/12/08 11:40:37;;;;;;;2.70;1.38;;;;;;;;;;5039497;28;20028;-73
2021/12/08 11:43:04;;;;;;;3.90;1.20;;;;;;;;;;5039125;28;20021;-74
2021/12/08 11:45:42;;;;;;;1.95;0.90;;;;;;;;;;5038216;28;20091;-76
2021/12/08 11:48:23;;;;;;;1.85;0.93;;;;;;;;;;5039314;28;20037;-75
2021/12/08 11:51:06;;;;;;;1.00;0.60;;;;;;;;;;5039440;28;20036;-75
2021/12/08 11:53:32;;;;;;;3.67;0.88;;;;;;;;;;5037757;28;20025;-72
2021/12/08 11:55:59;;;;;;;0.90;0.60;;;;;;;;;;5037822;28;20104;-78
2021/12/08 11:58:25;;;;;;;2.25;1.10;;;;;;;;;;5037747;28;20051;-75
2021/12/08 12:00:53;;;;;;;0.98;0.63;;;;;;;;;;5041424;28;20485;-73
2021/12/08 12:03:19;;;;;;;4.80;0.98;;;;;;;;;;5039990;28;20696;-76
2021/12/08 12:05:47;;;;;;;1.88;0.80;;;;;;;;;;5040013;28;20430;-71
2021/12/08 12:08:15;;;;;;;2.53;1.13;;;;;;;;;;5041055;28;20128;-72
2021/12/08 12:10:45;;;;;;;1.75;0.98;;;;;;;;;;5041421;28;20028;-72
2021/12/08 12:13:12;;;;;;;2.50;1.58;;;;;;;;;;5041739;28;20108;-72
2021/12/08 12:15:41;;;;;;;2.65;1.00;;;;;;;;;;5041327;28;20385;-74
2021/12/08 12:18:08;;;;;;;3.67;1.27;;;;;;;;;;5040859;28;20044;-72
2021/12/08 12:20:45;;;;;;;1.98;1.20;;;;;;;;;;5039244;28;20025;-73
2021/12/08 12:23:30;;;;;;;2.88;1.52;;;;;;;;;;5041616;28;20086;-73
2021/12/08 12:26:06;;;;;;;2.88;1.40;;;;;;;;;;5034487;28;20686;-78
2021/12/08 12:28:51;;;;;;;2.72;1.17;;;;;;;;;;5040784;28;20288;-74
2021/12/08 12:31:31;;;;;;;1.90;1.27;;;;;;;;;;5039806;28;20669;-76
2021/12/08 12:33:57;;;;;;;2.25;1.40;;;;;;;;;;5033715;28;20191;-74
2021/12/08 12:36:23;;;;;;;3.88;1.70;;;;;;;;;;5040851;28;20021;-75
2021/12/08 12:38:50;;;;;;;3.80;1.60;;;;;;;;;;5039376;28;20029;-74
2021/12/08 12:41:31;;;;;;;3.58;1.80;;;;;;;;;;5039920;28;20021;-74
2021/12/08 12:44:24;;;;;;;6.18;1.40;;;;;;;;;;5039346;28;20445;-76
2021/12/08 12:47:09;;;;;;;3.15;1.45;;;;;;;;;;5038703;28;20049;-74
2021/12/08 12:49:37;;;;;;;3.28;1.30;;;;;;;;;;5040672;28;20032;-72
2021/12/08 12:52:07;;;;;;;2.63;1.20;;;;;;;;;;5040834;28;20021;-73
2021/12/08 12:54:34;;;;;;;1.65;1.08;;;;;;;;;;5039084;28;20035;-73
2021/12/08 12:57:00;;;;;;;1.67;1.15;;;;;;;;;;5040627;28;20029;-75
2021/12/08 12:59:38;;;;;;;5.20;1.20;;;;;;;;;;5040435;28;20217;-73
2021/12/08 13:02:12;;;;;;;1.55;1.20;;;;;;;;;;5037234;28;20132;-73
2021/12/08 13:04:57;;;;;;;1.73;1.17;;;;;;;;;;5040932;28;20021;-80
2021/12/08 13:07:24;;;;;;;1.75;0.90;;;;;;;;;;5040933;28;20123;-74
2021/12/08 13:09:53;;;;;;;2.40;1.10;;;;;;;;;;5040593;28;20029;-73
2021/12/08 13:12:24;;;;;;;2.60;1.63;;;;;;;;;;5039837;28;20032;-71
2021/12/08 13:15:06;;;;;;;2.95;1.48;;;;;;;;;;5039851;28;20025;-71
2021/12/08 13:17:32;;;;;;;;;;;;;;;;;;5039283;28;20036;-75
2021/12/08 13:20:00;;;;;;;3.15;1.13;;;;;;;;;;5040058;28;19967;-74
2021/12/08 13:22:49;;;;;;;2.67;1.70;;;;;;;;;;5039590;28;20021;-75
2021/12/08 13:25:30;;;;;;;2.80;1.17;;;;;;;;;;5031369;28;20033;-74
2021/12/08 13:28:08;;;;;;;1.40;0.90;;;;;;;;;;5036648;28;20098;-74
2021/12/08 13:30:34;;;;;;;1.85;1.00;;;;;;;;;;5039909;28;20447;-75
2021/12/08 13:33:08;;;;;;;1.55;1.08;;;;;;;;;;5040365;28;20025;-75
2021/12/08 13:35:38;;;;;;;2.60;1.02;;;;;;;;;;5038641;28;20104;-72
2021/12/08 13:38:04;;;;;;;6.50;1.40;;;;;;;;;;5031358;28;20025;-72
2021/12/08 13:41:00;;;;;;;1.48;0.70;;;;;;;;;;5035191;28;20053;-72
2021/12/08 13:43:37;;;;;;;0.90;0.60;;;;;;;;;;5023100;28;20586;-71
2021/12/08 13:46:04;;;;;;;0.57;0.35;;;;;;;;;;5036102;28;20768;-71
2021/12/08 13:48:30;;;;;;;0.93;0.50;;;;;;;;;;5030748;28;20037;-72
2021/12/08 13:51:15;;;;;;;1.33;0.60;;;;;;;;;;5042962;28;20060;-73
2021/12/08 13:53:41;;;;;;;1.98;0.50;;;;;;;;;;5036876;28;20025;-74
2021/12/08 13:56:07;;;;;;;0.40;0.38;;;;;;;;;;5043349;28;20547;-75
2021/12/08 13:58:39;;;;;;;1.15;0.50;;;;;;;;;;5032658;28;21646;-77
2021/12/08 14:01:05;;;;;;;1.05;0.30;;;;;;;;;;5038872;28;20131;-72
2021/12/08 14:03:36;;;;;;;3.05;0.70;;;;;;;;;;5042725;28;20032;-73
2021/12/08 14:06:04;;;;;;;1.52;0.70;;;;;;;;;;5043150;28;20033;-72
2021/12/08 14:08:39;;;;;;;1.20;0.57;;;;;;;;;;5043466;28;20029;-72
2021/12/08 14:11:06;;;;;;;1.30;0.50;;;;;;;;;;5043337;28;20039;-75
2021/12/08 14:13:36;;;;;;;0.68;0.50;;;;;;;;;;5035477;28;20036;-75
2021/12/08 14:16:07;;;;;;;1.30;0.80;;;;;;;;;;5041949;28;20389;-76
2021/12/08 14:18:44;;;;;;;0.50;0.50;;;;;;;;;;5043398;28;20025;-75
2021/12/08 14:21:10;;;;;;;2.33;1.20;;;;;;;;;;5036729;28;20285;-75
2021/12/08 14:23:40;;;;;;;2.55;1.40;;;;;;;;;;5040023;28;20025;-75
2021/12/08 14:26:14;;;;;;;0.93;0.55;;;;;;;;;;5043275;28;20136;-73
2021/12/08 14:28:43;;;;;;;1.30;0.70;;;;;;;;;;5042680;28;20496;-73
2021/12/08 14:31:18;;;;;;;3.33;0.90;;;;;;;;;;5036046;28;20025;-72
2021/12/08 14:33:59;;;;;;;0.82;0.40;;;;;;;;;;5042870;28;20546;-76
2021/12/08 14:36:39;;;;;;;0.77;0.32;;;;;;;;;;5039906;28;20040;-75
2021/12/08 14:39:10;;;;;;;1.75;0.60;;;;;;;;;;5042369;28;20615;-73
2021/12/08 14:41:39;;;;;;;1.90;0.60;;;;;;;;;;5042039;28;20033;-75
2021/12/08 14:44:08;;;;;;;2.65;1.20;;;;;;;;;;5042273;28;20027;-73
2021/12/08 14:46:35;;;;;;;2.40;1.80;;;;;;;;;;5040379;28;20025;-76
2021/12/08 14:49:04;;;;;;;1.48;0.80;;;;;;;;;;5042401;28;20055;-72
2021/12/08 14:51:31;;;;;;;1.73;0.90;;;;;;;;;;5040916;28;20025;-73
2021/12/08 14:54:17;;;;;;;1.60;0.82;;;;;;;;;;5042252;28;20381;-74
2021/12/08 14:56:44;;;;;;;1.63;0.90;;;;;;;;;;5027298;28;20033;-73
2021/12/08 14:59:10;;;;;;;1.45;0.70;;;;;;;;;;5041596;28;20017;-76
2021/12/08 15:01:38;;;;;;;1.52;0.68;;;;;;;;;;5039178;28;20108;-75
2021/12/08 15:04:05;;;;;;;5.57;0.65;;;;;;;;;;5040805;28;20021;-74
2021/12/08 15:06:31;;;;;;;1.70;1.00;;;;;;;;;;5042059;28;20118;-74
2021/12/08 15:08:57;;;;;;;2.60;1.00;;;;;;;;;;5042424;28;20182;-74
2021/12/08 15:11:25;;;;;;;2.15;1.20;;;;;;;;;;5042266;28;20537;-73
2021/12/08 15:13:52;;;;;;;1.80;1.23;;;;;;;;;;5041472;28;20104;-73
2021/12/08 15:16:20;;;;;;;2.38;1.60;;;;;;;;;;5040966;28;20043;-74
2021/12/08 15:18:51;;;;;;;2.38;1.27;;;;;;;;;;5041998;28;20095;-77
2021/12/08 15:21:34;;;;;;;1.63;0.95;;;;;;;;;;5042015;28;20039;-74
2021/12/08 15:24:06;;;;;;;1.90;1.10;;;;;;;;;;5040362;28;20108;-76
2021/12/08 15:26:32;;;;;;;1.30;0.87;;;;;;;;;;5042367;28;20076;-74
2021/12/08 15:28:59;;;;;;;2.63;1.80;;;;;;;;;;5042329;28;20111;-74
2021/12/08 15:31:35;;;;;;;2.00;1.40;;;;;;;;;;5041889;28;20100;-75
2021/12/08 15:34:02;;;;;;;2.33;1.20;;;;;;;;;;5042164;28;20041;-72
2021/12/08 15:36:32;;;;;;;2.83;1.70;;;;;;;;;;5039557;28;20029;-73
2021/12/08 15:39:00;;;;;;;2.65;1.00;;;;;;;;;;5041349;28;20056;-76
2021/12/08 15:41:29;;;;;;;2.28;1.17;;;;;;;;;;5041510;28;20142;-73
2021/12/08 15:44:12;;;;;;;1.85;1.10;;;;;;;;;;5041550;28;20547;-73
2021/12/08 15:46:39;;;;;;;2.60;0.90;;;;;;;;;;5035511;28;20028;-73
2021/12/08 15:49:06;;;;;;;1.20;0.80;;;;;;;;;;5040451;28;20116;-76
2021/12/08 15:51:34;;;;;;;2.47;0.82;;;;;;;;;;5034245;28;20028;-78